sensor_id;sensor_type;location;lat;lon;timestamp;P1;durP1;ratioP1;P2;durP2;ratioP2
60014;SDS011;45867;52.480;6.056;2022-11-21T00:00:31;41.55;;;16.83;;
60014;SDS011;45867;52.480;6.056;2022-11-21T00:02:59;44.25;;;17.38;;
60014;SDS011;45867;52.480;6.056;2022-11-21T00:05:27;43.80;;;18.27;;
60014;SDS011;45867;52.480;6.056;2022-11-21T00:07:54;41.63;;;17.10;;
60014;SDS011;45867;52.480;6.056;2022-11-21T00:10:22;41.40;;;18.70;;
60014;SDS011;45867;52.480;6.056;2022-11-21T00:12:56;40.20;;;17.92;;
60014;SDS011;45867;52.480;6.056;2022-11-21T00:15:23;41.90;;;17.85;;
60014;SDS011;45867;52.480;6.056;2022-11-21T00:17:55;46.25;;;19.83;;
60014;SDS011;45867;52.480;6.056;2022-11-21T00:20:21;40.97;;;18.80;;
60014;SDS011;45867;52.480;6.056;2022-11-21T00:22:50;44.50;;;19.83;;
60014;SDS011;45867;52.480;6.056;2022-11-21T00:25:21;41.55;;;18.67;;
60014;SDS011;45867;52.480;6.056;2022-11-21T00:27:48;47.55;;;19.92;;
60014;SDS011;45867;52.480;6.056;2022-11-21T00:30:15;41.85;;;18.65;;
60014;SDS011;45867;52.480;6.056;2022-11-21T00:32:44;47.53;;;18.73;;
60014;SDS011;45867;52.480;6.056;2022-11-21T00:35:09;41.63;;;19.45;;
60014;SDS011;45867;52.480;6.056;2022-11-21T00:37:35;47.80;;;19.70;;
60014;SDS011;45867;52.480;6.056;2022-11-21T00:40:01;47.90;;;19.55;;
60014;SDS011;45867;52.480;6.056;2022-11-21T00:42:29;46.30;;;19.33;;
60014;SDS011;45867;52.480;6.056;2022-11-21T00:44:54;45.83;;;19.17;;
60014;SDS011;45867;52.480;6.056;2022-11-21T00:47:20;48.58;;;19.55;;
60014;SDS011;45867;52.480;6.056;2022-11-21T00:49:45;47.10;;;19.33;;
60014;SDS011;45867;52.480;6.056;2022-11-21T00:52:11;45.03;;;18.90;;
60014;SDS011;45867;52.480;6.056;2022-11-21T00:54:36;42.80;;;19.15;;
60014;SDS011;45867;52.480;6.056;2022-11-21T00:57:02;44.47;;;18.40;;
60014;SDS011;45867;52.480;6.056;2022-11-21T00:59:27;53.72;;;20.17;;
60014;SDS011;45867;52.480;6.056;2022-11-21T01:01:53;45.78;;;19.48;;
60014;SDS011;45867;52.480;6.056;2022-11-21T01:04:18;43.95;;;19.45;;
60014;SDS011;45867;52.480;6.056;2022-11-21T01:06:44;47.30;;;19.70;;
60014;SDS011;45867;52.480;6.056;2022-11-21T01:09:10;47.03;;;20.60;;
60014;SDS011;45867;52.480;6.056;2022-11-21T01:11:35;47.65;;;20.98;;
60014;SDS011;45867;52.480;6.056;2022-11-21T01:14:03;40.45;;;18.92;;
60014;SDS011;45867;52.480;6.056;2022-11-21T01:16:30;44.08;;;19.30;;
60014;SDS011;45867;52.480;6.056;2022-11-21T01:19:01;44.00;;;20.10;;
60014;SDS011;45867;52.480;6.056;2022-11-21T01:21:30;52.78;;;21.85;;
60014;SDS011;45867;52.480;6.056;2022-11-21T01:23:58;45.53;;;21.05;;
60014;SDS011;45867;52.480;6.056;2022-11-21T01:26:26;48.25;;;21.55;;
60014;SDS011;45867;52.480;6.056;2022-11-21T01:28:53;52.80;;;21.92;;
60014;SDS011;45867;52.480;6.056;2022-11-21T01:31:23;56.97;;;21.75;;
60014;SDS011;45867;52.480;6.056;2022-11-21T01:33:51;50.60;;;21.17;;
60014;SDS011;45867;52.480;6.056;2022-11-21T01:38:45;53.95;;;22.15;;
60014;SDS011;45867;52.480;6.056;2022-11-21T01:41:14;53.97;;;22.83;;
60014;SDS011;45867;52.480;6.056;2022-11-21T01:43:49;57.25;;;23.08;;
60014;SDS011;45867;52.480;6.056;2022-11-21T01:46:17;58.97;;;24.15;;
60014;SDS011;45867;52.480;6.056;2022-11-21T01:49:03;61.17;;;22.95;;
60014;SDS011;45867;52.480;6.056;2022-11-21T01:54:13;51.97;;;23.25;;
60014;SDS011;45867;52.480;6.056;2022-11-21T01:57:01;53.00;;;22.08;;
60014;SDS011;45867;52.480;6.056;2022-11-21T01:59:36;58.35;;;23.77;;
60014;SDS011;45867;52.480;6.056;2022-11-21T02:02:09;61.50;;;24.98;;
60014;SDS011;45867;52.480;6.056;2022-11-21T02:04:37;59.58;;;23.63;;
60014;SDS011;45867;52.480;6.056;2022-11-21T02:07:07;55.55;;;23.17;;
60014;SDS011;45867;52.480;6.056;2022-11-21T02:09:36;53.63;;;22.60;;
60014;SDS011;45867;52.480;6.056;2022-11-21T02:12:15;56.25;;;22.60;;
60014;SDS011;45867;52.480;6.056;2022-11-21T02:14:49;52.78;;;23.20;;
60014;SDS011;45867;52.480;6.056;2022-11-21T02:17:18;61.55;;;23.73;;
60014;SDS011;45867;52.480;6.056;2022-11-21T02:22:32;59.70;;;22.95;;
60014;SDS011;45867;52.480;6.056;2022-11-21T02:25:06;54.95;;;23.05;;
60014;SDS011;45867;52.480;6.056;2022-11-21T02:27:34;59.70;;;22.80;;
60014;SDS011;45867;52.480;6.056;2022-11-21T02:30:03;46.45;;;21.67;;
60014;SDS011;45867;52.480;6.056;2022-11-21T02:32:32;51.90;;;22.40;;
60014;SDS011;45867;52.480;6.056;2022-11-21T02:35:02;49.38;;;21.17;;
60014;SDS011;45867;52.480;6.056;2022-11-21T02:37:28;51.92;;;22.77;;
60014;SDS011;45867;52.480;6.056;2022-11-21T02:39:55;50.38;;;21.90;;
60014;SDS011;45867;52.480;6.056;2022-11-21T02:42:33;45.20;;;21.27;;
60014;SDS011;45867;52.480;6.056;2022-11-21T02:45:07;46.22;;;22.17;;
60014;SDS011;45867;52.480;6.056;2022-11-21T02:47:38;47.47;;;21.50;;
60014;SDS011;45867;52.480;6.056;2022-11-21T02:50:12;50.10;;;21.33;;
60014;SDS011;45867;52.480;6.056;2022-11-21T02:52:48;49.72;;;21.27;;
60014;SDS011;45867;52.480;6.056;2022-11-21T02:55:14;56.28;;;21.58;;
60014;SDS011;45867;52.480;6.056;2022-11-21T02:57:55;46.70;;;20.70;;
60014;SDS011;45867;52.480;6.056;2022-11-21T03:00:20;43.95;;;19.95;;
60014;SDS011;45867;52.480;6.056;2022-11-21T03:02:46;42.47;;;19.92;;
60014;SDS011;45867;52.480;6.056;2022-11-21T03:05:13;53.40;;;24.13;;
60014;SDS011;45867;52.480;6.056;2022-11-21T03:07:41;51.17;;;21.70;;
60014;SDS011;45867;52.480;6.056;2022-11-21T03:10:06;47.17;;;20.58;;
60014;SDS011;45867;52.480;6.056;2022-11-21T03:12:34;45.10;;;21.23;;
60014;SDS011;45867;52.480;6.056;2022-11-21T03:15:04;51.58;;;20.80;;
60014;SDS011;45867;52.480;6.056;2022-11-21T03:17:31;47.80;;;21.88;;
60014;SDS011;45867;52.480;6.056;2022-11-21T03:19:56;52.22;;;21.75;;
60014;SDS011;45867;52.480;6.056;2022-11-21T03:22:22;46.88;;;20.77;;
60014;SDS011;45867;52.480;6.056;2022-11-21T03:24:47;44.95;;;20.50;;
60014;SDS011;45867;52.480;6.056;2022-11-21T03:27:13;43.10;;;19.70;;
60014;SDS011;45867;52.480;6.056;2022-11-21T03:29:38;50.00;;;22.05;;
60014;SDS011;45867;52.480;6.056;2022-11-21T03:32:04;43.15;;;21.13;;
60014;SDS011;45867;52.480;6.056;2022-11-21T03:34:29;51.08;;;21.23;;
60014;SDS011;45867;52.480;6.056;2022-11-21T03:36:54;40.05;;;19.23;;
60014;SDS011;45867;52.480;6.056;2022-11-21T03:39:20;42.65;;;19.90;;
60014;SDS011;45867;52.480;6.056;2022-11-21T03:41:45;48.28;;;20.23;;
60014;SDS011;45867;52.480;6.056;2022-11-21T03:44:11;48.53;;;21.30;;
60014;SDS011;45867;52.480;6.056;2022-11-21T03:46:38;47.55;;;21.67;;
60014;SDS011;45867;52.480;6.056;2022-11-21T03:49:06;49.38;;;21.60;;
60014;SDS011;45867;52.480;6.056;2022-11-21T03:51:32;46.58;;;22.55;;
60014;SDS011;45867;52.480;6.056;2022-11-21T03:53:57;52.97;;;22.13;;
60014;SDS011;45867;52.480;6.056;2022-11-21T03:56:23;53.47;;;23.20;;
60014;SDS011;45867;52.480;6.056;2022-11-21T03:58:49;60.13;;;24.15;;
60014;SDS011;45867;52.480;6.056;2022-11-21T04:01:14;56.55;;;21.83;;
60014;SDS011;45867;52.480;6.056;2022-11-21T04:03:43;65.28;;;23.58;;
60014;SDS011;45867;52.480;6.056;2022-11-21T04:06:10;56.55;;;23.42;;
60014;SDS011;45867;52.480;6.056;2022-11-21T04:08:37;56.45;;;23.35;;
60014;SDS011;45867;52.480;6.056;2022-11-21T04:11:03;69.55;;;23.27;;
60014;SDS011;45867;52.480;6.056;2022-11-21T04:13:28;64.13;;;24.25;;
60014;SDS011;45867;52.480;6.056;2022-11-21T04:15:54;60.40;;;23.83;;
60014;SDS011;45867;52.480;6.056;2022-11-21T04:18:19;66.70;;;23.90;;
60014;SDS011;45867;52.480;6.056;2022-11-21T04:20:45;76.65;;;22.30;;
60014;SDS011;45867;52.480;6.056;2022-11-21T04:23:10;77.05;;;22.60;;
60014;SDS011;45867;52.480;6.056;2022-11-21T04:25:36;84.20;;;22.08;;
60014;SDS011;45867;52.480;6.056;2022-11-21T04:28:01;86.30;;;14.38;;
60014;SDS011;45867;52.480;6.056;2022-11-21T04:30:29;152.43;;;20.95;;
60014;SDS011;45867;52.480;6.056;2022-11-21T04:32:55;104.90;;;18.98;;
60014;SDS011;45867;52.480;6.056;2022-11-21T04:35:24;93.35;;;18.42;;
60014;SDS011;45867;52.480;6.056;2022-11-21T04:37:51;139.90;;;18.55;;
60014;SDS011;45867;52.480;6.056;2022-11-21T04:40:17;147.93;;;20.10;;
60014;SDS011;45867;52.480;6.056;2022-11-21T04:42:42;88.97;;;19.27;;
60014;SDS011;45867;52.480;6.056;2022-11-21T04:45:10;102.22;;;19.63;;
60014;SDS011;45867;52.480;6.056;2022-11-21T04:47:36;99.40;;;18.58;;
60014;SDS011;45867;52.480;6.056;2022-11-21T04:50:03;71.93;;;19.60;;
60014;SDS011;45867;52.480;6.056;2022-11-21T04:52:29;132.77;;;18.23;;
60014;SDS011;45867;52.480;6.056;2022-11-21T04:54:54;53.85;;;17.42;;
60014;SDS011;45867;52.480;6.056;2022-11-21T04:57:30;57.20;;;17.92;;
60014;SDS011;45867;52.480;6.056;2022-11-21T04:59:55;95.05;;;16.52;;
60014;SDS011;45867;52.480;6.056;2022-11-21T05:02:21;72.53;;;16.40;;
60014;SDS011;45867;52.480;6.056;2022-11-21T05:04:47;77.38;;;16.20;;
60014;SDS011;45867;52.480;6.056;2022-11-21T05:07:13;80.32;;;17.58;;
60014;SDS011;45867;52.480;6.056;2022-11-21T05:09:38;91.13;;;17.75;;
60014;SDS011;45867;52.480;6.056;2022-11-21T05:12:04;81.80;;;17.25;;
60014;SDS011;45867;52.480;6.056;2022-11-21T05:14:48;89.13;;;17.60;;
60014;SDS011;45867;52.480;6.056;2022-11-21T05:17:14;83.90;;;17.83;;
60014;SDS011;45867;52.480;6.056;2022-11-21T05:19:39;120.47;;;16.98;;
60014;SDS011;45867;52.480;6.056;2022-11-21T05:22:04;129.68;;;17.25;;
60014;SDS011;45867;52.480;6.056;2022-11-21T05:24:30;102.43;;;14.82;;
60014;SDS011;45867;52.480;6.056;2022-11-21T05:26:55;141.57;;;15.95;;
60014;SDS011;45867;52.480;6.056;2022-11-21T05:29:21;132.20;;;14.05;;
60014;SDS011;45867;52.480;6.056;2022-11-21T05:31:46;129.15;;;12.23;;
60014;SDS011;45867;52.480;6.056;2022-11-21T05:34:11;154.90;;;13.40;;
60014;SDS011;45867;52.480;6.056;2022-11-21T05:36:37;167.18;;;13.77;;
60014;SDS011;45867;52.480;6.056;2022-11-21T05:39:02;184.00;;;15.95;;
60014;SDS011;45867;52.480;6.056;2022-11-21T05:41:28;151.55;;;15.88;;
60014;SDS011;45867;52.480;6.056;2022-11-21T05:43:56;186.77;;;16.17;;
60014;SDS011;45867;52.480;6.056;2022-11-21T05:46:23;244.10;;;18.58;;
60014;SDS011;45867;52.480;6.056;2022-11-21T05:48:50;158.90;;;16.80;;
60014;SDS011;45867;52.480;6.056;2022-11-21T05:51:17;193.32;;;18.38;;
60014;SDS011;45867;52.480;6.056;2022-11-21T05:53:43;112.32;;;16.65;;
60014;SDS011;45867;52.480;6.056;2022-11-21T05:56:10;176.98;;;18.33;;
60014;SDS011;45867;52.480;6.056;2022-11-21T05:58:37;66.20;;;13.00;;
60014;SDS011;45867;52.480;6.056;2022-11-21T06:01:03;102.25;;;15.75;;
60014;SDS011;45867;52.480;6.056;2022-11-21T06:03:31;131.35;;;15.88;;
60014;SDS011;45867;52.480;6.056;2022-11-21T06:08:25;194.82;;;17.42;;
60014;SDS011;45867;52.480;6.056;2022-11-21T06:10:55;125.55;;;15.13;;
60014;SDS011;45867;52.480;6.056;2022-11-21T06:13:20;134.63;;;16.42;;
60014;SDS011;45867;52.480;6.056;2022-11-21T06:15:50;136.98;;;16.10;;
60014;SDS011;45867;52.480;6.056;2022-11-21T06:18:35;196.70;;;15.98;;
60014;SDS011;45867;52.480;6.056;2022-11-21T06:21:04;99.90;;;13.55;;
60014;SDS011;45867;52.480;6.056;2022-11-21T06:23:36;191.77;;;15.82;;
60014;SDS011;45867;52.480;6.056;2022-11-21T06:26:03;142.15;;;16.55;;
60014;SDS011;45867;52.480;6.056;2022-11-21T06:28:31;192.85;;;17.60;;
60014;SDS011;45867;52.480;6.056;2022-11-21T06:31:08;156.38;;;16.70;;
60014;SDS011;45867;52.480;6.056;2022-11-21T06:33:36;194.15;;;17.70;;
60014;SDS011;45867;52.480;6.056;2022-11-21T06:36:12;215.57;;;18.02;;
60014;SDS011;45867;52.480;6.056;2022-11-21T06:38:42;220.25;;;19.25;;
60014;SDS011;45867;52.480;6.056;2022-11-21T06:41:12;223.02;;;18.27;;
60014;SDS011;45867;52.480;6.056;2022-11-21T06:43:40;177.07;;;16.70;;
60014;SDS011;45867;52.480;6.056;2022-11-21T06:46:06;110.95;;;16.08;;
60014;SDS011;45867;52.480;6.056;2022-11-21T06:48:32;174.32;;;17.98;;
60014;SDS011;45867;52.480;6.056;2022-11-21T06:51:03;122.13;;;18.95;;
60014;SDS011;45867;52.480;6.056;2022-11-21T06:53:35;153.75;;;16.75;;
60014;SDS011;45867;52.480;6.056;2022-11-21T06:56:00;151.02;;;16.83;;
60014;SDS011;45867;52.480;6.056;2022-11-21T06:58:26;144.02;;;16.58;;
60014;SDS011;45867;52.480;6.056;2022-11-21T07:00:53;125.90;;;15.90;;
60014;SDS011;45867;52.480;6.056;2022-11-21T07:03:19;122.50;;;14.02;;
60014;SDS011;45867;52.480;6.056;2022-11-21T07:05:45;128.27;;;16.40;;
60014;SDS011;45867;52.480;6.056;2022-11-21T07:08:13;188.18;;;16.88;;
60014;SDS011;45867;52.480;6.056;2022-11-21T07:10:39;191.38;;;18.83;;
60014;SDS011;45867;52.480;6.056;2022-11-21T07:13:05;148.48;;;16.90;;
60014;SDS011;45867;52.480;6.056;2022-11-21T07:15:46;143.48;;;17.50;;
60014;SDS011;45867;52.480;6.056;2022-11-21T07:18:13;148.30;;;18.10;;
60014;SDS011;45867;52.480;6.056;2022-11-21T07:20:39;138.38;;;16.15;;
60014;SDS011;45867;52.480;6.056;2022-11-21T07:23:05;103.65;;;14.98;;
60014;SDS011;45867;52.480;6.056;2022-11-21T07:25:31;61.42;;;13.70;;
60014;SDS011;45867;52.480;6.056;2022-11-21T07:27:57;114.82;;;16.25;;
60014;SDS011;45867;52.480;6.056;2022-11-21T07:30:24;122.63;;;17.05;;
60014;SDS011;45867;52.480;6.056;2022-11-21T07:32:56;132.90;;;16.10;;
60014;SDS011;45867;52.480;6.056;2022-11-21T07:35:29;126.65;;;15.88;;
60014;SDS011;45867;52.480;6.056;2022-11-21T07:37:55;108.70;;;16.30;;
60014;SDS011;45867;52.480;6.056;2022-11-21T07:40:20;91.00;;;14.55;;
60014;SDS011;45867;52.480;6.056;2022-11-21T07:42:46;86.55;;;15.13;;
60014;SDS011;45867;52.480;6.056;2022-11-21T07:45:12;120.80;;;14.50;;
60014;SDS011;45867;52.480;6.056;2022-11-21T07:47:38;81.05;;;14.20;;
60014;SDS011;45867;52.480;6.056;2022-11-21T07:50:04;93.32;;;14.45;;
60014;SDS011;45867;52.480;6.056;2022-11-21T07:52:30;95.00;;;12.90;;
60014;SDS011;45867;52.480;6.056;2022-11-21T07:54:56;97.15;;;14.52;;
60014;SDS011;45867;52.480;6.056;2022-11-21T07:57:23;87.40;;;13.60;;
60014;SDS011;45867;52.480;6.056;2022-11-21T07:59:49;100.82;;;13.50;;
60014;SDS011;45867;52.480;6.056;2022-11-21T08:02:22;91.82;;;13.55;;
60014;SDS011;45867;52.480;6.056;2022-11-21T08:04:51;105.10;;;13.40;;
60014;SDS011;45867;52.480;6.056;2022-11-21T08:07:19;78.22;;;13.23;;
60014;SDS011;45867;52.480;6.056;2022-11-21T08:09:46;86.93;;;14.40;;
60014;SDS011;45867;52.480;6.056;2022-11-21T08:12:12;66.95;;;13.27;;
60014;SDS011;45867;52.480;6.056;2022-11-21T08:14:37;87.22;;;13.23;;
60014;SDS011;45867;52.480;6.056;2022-11-21T08:17:03;88.60;;;13.45;;
60014;SDS011;45867;52.480;6.056;2022-11-21T08:19:29;79.45;;;12.93;;
60014;SDS011;45867;52.480;6.056;2022-11-21T08:21:56;69.32;;;11.80;;
60014;SDS011;45867;52.480;6.056;2022-11-21T08:24:21;54.63;;;12.40;;
60014;SDS011;45867;52.480;6.056;2022-11-21T08:26:47;83.35;;;13.65;;
60014;SDS011;45867;52.480;6.056;2022-11-21T08:29:13;52.45;;;12.90;;
60014;SDS011;45867;52.480;6.056;2022-11-21T08:31:39;56.03;;;9.35;;
60014;SDS011;45867;52.480;6.056;2022-11-21T08:34:05;44.75;;;11.98;;
60014;SDS011;45867;52.480;6.056;2022-11-21T08:36:30;79.20;;;12.32;;
60014;SDS011;45867;52.480;6.056;2022-11-21T08:38:56;111.07;;;13.98;;
60014;SDS011;45867;52.480;6.056;2022-11-21T08:41:21;63.28;;;13.75;;
60014;SDS011;45867;52.480;6.056;2022-11-21T08:44:05;55.55;;;13.00;;
60014;SDS011;45867;52.480;6.056;2022-11-21T08:46:32;60.55;;;14.45;;
60014;SDS011;45867;52.480;6.056;2022-11-21T08:49:01;66.25;;;12.85;;
60014;SDS011;45867;52.480;6.056;2022-11-21T08:51:27;81.80;;;15.18;;
60014;SDS011;45867;52.480;6.056;2022-11-21T08:53:53;53.15;;;13.35;;
60014;SDS011;45867;52.480;6.056;2022-11-21T08:56:18;60.60;;;13.20;;
60014;SDS011;45867;52.480;6.056;2022-11-21T08:58:44;62.15;;;14.02;;
60014;SDS011;45867;52.480;6.056;2022-11-21T09:01:09;49.85;;;13.82;;
60014;SDS011;45867;52.480;6.056;2022-11-21T09:03:34;43.30;;;13.57;;
60014;SDS011;45867;52.480;6.056;2022-11-21T09:06:00;50.88;;;13.48;;
60014;SDS011;45867;52.480;6.056;2022-11-21T09:08:25;47.38;;;15.63;;
60014;SDS011;45867;52.480;6.056;2022-11-21T09:10:51;54.72;;;15.15;;
60014;SDS011;45867;52.480;6.056;2022-11-21T09:13:16;46.78;;;15.18;;
60014;SDS011;45867;52.480;6.056;2022-11-21T09:15:42;57.50;;;15.50;;
60014;SDS011;45867;52.480;6.056;2022-11-21T09:18:26;54.53;;;14.80;;
60014;SDS011;45867;52.480;6.056;2022-11-21T09:20:51;43.65;;;15.80;;
60014;SDS011;45867;52.480;6.056;2022-11-21T09:23:17;43.13;;;15.63;;
60014;SDS011;45867;52.480;6.056;2022-11-21T09:25:43;40.92;;;16.27;;
60014;SDS011;45867;52.480;6.056;2022-11-21T09:28:10;40.13;;;15.60;;
60014;SDS011;45867;52.480;6.056;2022-11-21T09:30:36;57.47;;;17.05;;
60014;SDS011;45867;52.480;6.056;2022-11-21T09:33:03;36.22;;;14.43;;
60014;SDS011;45867;52.480;6.056;2022-11-21T09:35:31;48.28;;;16.95;;
60014;SDS011;45867;52.480;6.056;2022-11-21T09:37:56;38.03;;;14.73;;
60014;SDS011;45867;52.480;6.056;2022-11-21T09:40:22;40.53;;;16.33;;
60014;SDS011;45867;52.480;6.056;2022-11-21T09:46:05;41.97;;;16.42;;
60014;SDS011;45867;52.480;6.056;2022-11-21T09:48:38;42.95;;;16.38;;
60014;SDS011;45867;52.480;6.056;2022-11-21T09:51:09;42.08;;;15.57;;
60014;SDS011;45867;52.480;6.056;2022-11-21T09:56:28;37.63;;;13.63;;
60014;SDS011;45867;52.480;6.056;2022-11-21T10:01:41;44.70;;;16.88;;
60014;SDS011;45867;52.480;6.056;2022-11-21T10:04:07;41.58;;;16.83;;
60014;SDS011;45867;52.480;6.056;2022-11-21T10:06:37;47.97;;;18.27;;
60014;SDS011;45867;52.480;6.056;2022-11-21T10:14:52;37.58;;;14.73;;
60014;SDS011;45867;52.480;6.056;2022-11-21T10:20:16;36.33;;;15.82;;
60014;SDS011;45867;52.480;6.056;2022-11-21T10:25:54;54.25;;;18.27;;
60014;SDS011;45867;52.480;6.056;2022-11-21T10:28:23;39.45;;;17.27;;
60014;SDS011;45867;52.480;6.056;2022-11-21T10:31:09;50.35;;;17.40;;
60014;SDS011;45867;52.480;6.056;2022-11-21T10:33:38;39.03;;;16.85;;
60014;SDS011;45867;52.480;6.056;2022-11-21T10:36:11;45.10;;;17.75;;
60014;SDS011;45867;52.480;6.056;2022-11-21T10:38:47;42.78;;;18.13;;
60014;SDS011;45867;52.480;6.056;2022-11-21T10:47:10;42.00;;;16.15;;
60014;SDS011;45867;52.480;6.056;2022-11-21T10:49:38;29.92;;;12.15;;
60014;SDS011;45867;52.480;6.056;2022-11-21T10:52:05;35.67;;;14.88;;
60014;SDS011;45867;52.480;6.056;2022-11-21T10:54:56;32.78;;;13.95;;
60014;SDS011;45867;52.480;6.056;2022-11-21T10:57:41;34.80;;;15.40;;
60014;SDS011;45867;52.480;6.056;2022-11-21T11:02:38;28.95;;;13.40;;
60014;SDS011;45867;52.480;6.056;2022-11-21T11:05:21;30.63;;;11.73;;
60014;SDS011;45867;52.480;6.056;2022-11-21T11:08:02;35.72;;;15.30;;
60014;SDS011;45867;52.480;6.056;2022-11-21T11:10:33;36.88;;;16.02;;
60014;SDS011;45867;52.480;6.056;2022-11-21T11:12:59;35.88;;;14.93;;
60014;SDS011;45867;52.480;6.056;2022-11-21T11:15:53;34.70;;;15.27;;
60014;SDS011;45867;52.480;6.056;2022-11-21T11:18:25;35.88;;;15.93;;
60014;SDS011;45867;52.480;6.056;2022-11-21T11:20:51;41.28;;;15.77;;
60014;SDS011;45867;52.480;6.056;2022-11-21T11:25:49;41.85;;;14.05;;
60014;SDS011;45867;52.480;6.056;2022-11-21T11:28:17;32.22;;;14.27;;
60014;SDS011;45867;52.480;6.056;2022-11-21T11:30:49;35.95;;;13.88;;
60014;SDS011;45867;52.480;6.056;2022-11-21T11:33:30;27.30;;;12.60;;
60014;SDS011;45867;52.480;6.056;2022-11-21T11:35:55;27.33;;;12.73;;
60014;SDS011;45867;52.480;6.056;2022-11-21T11:38:31;25.58;;;12.23;;
60014;SDS011;45867;52.480;6.056;2022-11-21T11:41:02;30.40;;;12.20;;
60014;SDS011;45867;52.480;6.056;2022-11-21T11:43:43;30.55;;;13.57;;
60014;SDS011;45867;52.480;6.056;2022-11-21T11:49:41;31.45;;;12.27;;
60014;SDS011;45867;52.480;6.056;2022-11-21T11:55:04;32.38;;;13.60;;
60014;SDS011;45867;52.480;6.056;2022-11-21T11:57:39;36.63;;;14.05;;
60014;SDS011;45867;52.480;6.056;2022-11-21T12:00:16;38.15;;;14.98;;
60014;SDS011;45867;52.480;6.056;2022-11-21T12:02:59;38.80;;;16.42;;
60014;SDS011;45867;52.480;6.056;2022-11-21T12:05:32;37.28;;;17.02;;
60014;SDS011;45867;52.480;6.056;2022-11-21T12:08:05;66.78;;;30.30;;
60014;SDS011;45867;52.480;6.056;2022-11-21T12:10:41;41.25;;;19.75;;
60014;SDS011;45867;52.480;6.056;2022-11-21T12:13:31;42.47;;;18.57;;
60014;SDS011;45867;52.480;6.056;2022-11-21T12:16:01;38.47;;;16.95;;
60014;SDS011;45867;52.480;6.056;2022-11-21T12:21:12;44.78;;;15.82;;
60014;SDS011;45867;52.480;6.056;2022-11-21T12:26:11;41.75;;;16.33;;
60014;SDS011;45867;52.480;6.056;2022-11-21T12:28:50;44.47;;;17.40;;
60014;SDS011;45867;52.480;6.056;2022-11-21T12:34:49;37.15;;;15.05;;
60014;SDS011;45867;52.480;6.056;2022-11-21T12:43:45;48.75;;;18.08;;
60014;SDS011;45867;52.480;6.056;2022-11-21T12:47:12;57.88;;;16.65;;
60014;SDS011;45867;52.480;6.056;2022-11-21T12:49:20;53.47;;;18.95;;
60014;SDS011;45867;52.480;6.056;2022-11-21T12:52:22;51.75;;;19.58;;
60014;SDS011;45867;52.480;6.056;2022-11-21T13:00:26;47.38;;;15.18;;
60014;SDS011;45867;52.480;6.056;2022-11-21T13:06:13;54.80;;;18.35;;
60014;SDS011;45867;52.480;6.056;2022-11-21T13:08:43;57.35;;;18.60;;
60014;SDS011;45867;52.480;6.056;2022-11-21T13:11:28;42.08;;;14.05;;
60014;SDS011;45867;52.480;6.056;2022-11-21T13:17:28;57.15;;;19.40;;
60014;SDS011;45867;52.480;6.056;2022-11-21T13:22:52;52.60;;;17.90;;
60014;SDS011;45867;52.480;6.056;2022-11-21T13:28:42;59.85;;;18.58;;
60014;SDS011;45867;52.480;6.056;2022-11-21T13:30:45;59.13;;;19.80;;
60014;SDS011;45867;52.480;6.056;2022-11-21T13:33:17;53.47;;;20.35;;
60014;SDS011;45867;52.480;6.056;2022-11-21T13:36:05;48.35;;;16.13;;
60014;SDS011;45867;52.480;6.056;2022-11-21T13:49:47;66.57;;;20.02;;
60014;SDS011;45867;52.480;6.056;2022-11-21T13:52:29;62.22;;;20.25;;
60014;SDS011;45867;52.480;6.056;2022-11-21T13:55:06;71.55;;;20.77;;
60014;SDS011;45867;52.480;6.056;2022-11-21T13:58:04;61.00;;;18.90;;
60014;SDS011;45867;52.480;6.056;2022-11-21T14:00:52;66.55;;;20.27;;
60014;SDS011;45867;52.480;6.056;2022-11-21T14:06:34;64.30;;;22.67;;
60014;SDS011;45867;52.480;6.056;2022-11-21T14:09:20;79.78;;;23.70;;
60014;SDS011;45867;52.480;6.056;2022-11-21T14:11:58;75.57;;;23.50;;
60014;SDS011;45867;52.480;6.056;2022-11-21T14:14:27;65.68;;;20.95;;
60014;SDS011;45867;52.480;6.056;2022-11-21T14:17:20;58.05;;;17.77;;
60014;SDS011;45867;52.480;6.056;2022-11-21T14:19:57;74.57;;;19.38;;
60014;SDS011;45867;52.480;6.056;2022-11-21T14:25:33;65.35;;;19.42;;
60014;SDS011;45867;52.480;6.056;2022-11-21T14:28:02;77.63;;;23.10;;
60014;SDS011;45867;52.480;6.056;2022-11-21T14:30:37;71.50;;;21.48;;
60014;SDS011;45867;52.480;6.056;2022-11-21T14:35:54;60.72;;;19.85;;
60014;SDS011;45867;52.480;6.056;2022-11-21T14:38:23;72.50;;;20.67;;
60014;SDS011;45867;52.480;6.056;2022-11-21T14:40:49;64.07;;;20.33;;
60014;SDS011;45867;52.480;6.056;2022-11-21T14:43:35;64.75;;;21.33;;
60014;SDS011;45867;52.480;6.056;2022-11-21T14:46:00;75.75;;;21.67;;
60014;SDS011;45867;52.480;6.056;2022-11-21T14:48:26;65.93;;;22.25;;
60014;SDS011;45867;52.480;6.056;2022-11-21T14:50:54;70.80;;;21.83;;
60014;SDS011;45867;52.480;6.056;2022-11-21T14:53:22;76.20;;;24.70;;
60014;SDS011;45867;52.480;6.056;2022-11-21T14:55:48;70.85;;;21.10;;
60014;SDS011;45867;52.480;6.056;2022-11-21T14:58:17;65.10;;;20.90;;
60014;SDS011;45867;52.480;6.056;2022-11-21T15:01:04;71.07;;;19.88;;
60014;SDS011;45867;52.480;6.056;2022-11-21T15:03:53;63.00;;;20.13;;
60014;SDS011;45867;52.480;6.056;2022-11-21T15:06:23;60.85;;;19.17;;
60014;SDS011;45867;52.480;6.056;2022-11-21T15:08:51;71.88;;;22.13;;
60014;SDS011;45867;52.480;6.056;2022-11-21T15:11:18;80.63;;;23.10;;
60014;SDS011;45867;52.480;6.056;2022-11-21T15:13:55;71.15;;;21.42;;
60014;SDS011;45867;52.480;6.056;2022-11-21T15:16:25;73.93;;;23.63;;
60014;SDS011;45867;52.480;6.056;2022-11-21T15:18:54;78.57;;;22.38;;
60014;SDS011;45867;52.480;6.056;2022-11-21T15:21:19;84.32;;;24.83;;
60014;SDS011;45867;52.480;6.056;2022-11-21T15:23:45;84.30;;;25.33;;
60014;SDS011;45867;52.480;6.056;2022-11-21T15:26:31;80.35;;;23.90;;
60014;SDS011;45867;52.480;6.056;2022-11-21T15:29:15;77.38;;;23.55;;
60014;SDS011;45867;52.480;6.056;2022-11-21T15:31:45;75.60;;;23.50;;
60014;SDS011;45867;52.480;6.056;2022-11-21T15:34:24;85.47;;;23.50;;
60014;SDS011;45867;52.480;6.056;2022-11-21T15:39:28;67.88;;;20.42;;
60014;SDS011;45867;52.480;6.056;2022-11-21T15:41:54;80.00;;;22.77;;
60014;SDS011;45867;52.480;6.056;2022-11-21T15:44:20;83.40;;;22.95;;
60014;SDS011;45867;52.480;6.056;2022-11-21T15:46:49;92.57;;;23.88;;
60014;SDS011;45867;52.480;6.056;2022-11-21T15:49:16;89.78;;;23.05;;
60014;SDS011;45867;52.480;6.056;2022-11-21T15:51:43;89.30;;;22.60;;
60014;SDS011;45867;52.480;6.056;2022-11-21T15:54:11;101.47;;;24.98;;
60014;SDS011;45867;52.480;6.056;2022-11-21T15:56:38;82.75;;;23.75;;
60014;SDS011;45867;52.480;6.056;2022-11-21T15:59:04;82.22;;;24.33;;
60014;SDS011;45867;52.480;6.056;2022-11-21T16:01:30;95.85;;;26.35;;
60014;SDS011;45867;52.480;6.056;2022-11-21T16:03:57;89.95;;;23.38;;
60014;SDS011;45867;52.480;6.056;2022-11-21T16:06:25;82.28;;;23.85;;
60014;SDS011;45867;52.480;6.056;2022-11-21T16:09:09;87.22;;;25.88;;
60014;SDS011;45867;52.480;6.056;2022-11-21T16:11:35;92.65;;;24.67;;
60014;SDS011;45867;52.480;6.056;2022-11-21T16:14:13;85.88;;;24.40;;
60014;SDS011;45867;52.480;6.056;2022-11-21T16:16:41;81.13;;;24.38;;